Rothschild, Wisconsin
Current Conditions -  °F | °C
As of 9:54 PM on Saturday 25 Oct 2014 (Local Time) from KAUW Reporting Station
Clear Clear  
Wind Chill:   Ceiling: Unl
Heat Index:   Visibility: 10mi
Dew Point: -2°   Wind: 9mph
Humidity: 46%   Direction: 300°WNW
Pressure: 29.94"   Gusts: NA
Location:  44.89°N, 89.62°W
Report Text: KAUW 260254Z AUTO 30008KT 10SM CLR 09/M02 A2994 RMK AO2 SLP145 T00891022 51011
Loading
Personal Weather Stations






























Interactive Weather Map
Tropical Storm Tracking
New forecast layout! Learn more

10-Day Weather Forecast

Advertisements
Track Severe Weather on mobile